sensor_id;sensor_type;location;lat;lon;timestamp;P1;durP1;ratioP1;P2;durP2;ratioP2
7338;SDS011;33747;49.524;8.390;2023-12-29T00:00:25;4.72;;;3.40;;
7338;SDS011;33747;49.524;8.390;2023-12-29T00:02:50;3.65;;;3.33;;
7338;SDS011;33747;49.524;8.390;2023-12-29T00:05:16;6.90;;;3.65;;
7338;SDS011;33747;49.524;8.390;2023-12-29T00:07:41;3.95;;;2.83;;
7338;SDS011;33747;49.524;8.390;2023-12-29T00:10:07;3.58;;;2.95;;
7338;SDS011;33747;49.524;8.390;2023-12-29T00:12:33;4.05;;;2.72;;
7338;SDS011;33747;49.524;8.390;2023-12-29T00:14:58;7.00;;;2.65;;
7338;SDS011;33747;49.524;8.390;2023-12-29T00:17:24;3.55;;;3.20;;
7338;SDS011;33747;49.524;8.390;2023-12-29T00:19:49;4.13;;;3.60;;
7338;SDS011;33747;49.524;8.390;2023-12-29T00:22:14;3.55;;;3.25;;
7338;SDS011;33747;49.524;8.390;2023-12-29T00:24:40;2.88;;;2.58;;
7338;SDS011;33747;49.524;8.390;2023-12-29T00:27:05;2.33;;;2.10;;
7338;SDS011;33747;49.524;8.390;2023-12-29T00:29:31;3.28;;;2.95;;
7338;SDS011;33747;49.524;8.390;2023-12-29T00:31:58;4.55;;;4.05;;
7338;SDS011;33747;49.524;8.390;2023-12-29T00:34:23;4.45;;;4.10;;
7338;SDS011;33747;49.524;8.390;2023-12-29T00:36:48;5.72;;;3.70;;
7338;SDS011;33747;49.524;8.390;2023-12-29T00:39:14;8.57;;;4.22;;
7338;SDS011;33747;49.524;8.390;2023-12-29T00:41:40;5.63;;;4.30;;
7338;SDS011;33747;49.524;8.390;2023-12-29T00:44:06;3.63;;;3.20;;
7338;SDS011;33747;49.524;8.390;2023-12-29T00:46:32;4.07;;;3.35;;
7338;SDS011;33747;49.524;8.390;2023-12-29T00:48:57;4.05;;;3.35;;
7338;SDS011;33747;49.524;8.390;2023-12-29T00:51:22;4.40;;;3.90;;
7338;SDS011;33747;49.524;8.390;2023-12-29T00:53:48;4.40;;;3.58;;
7338;SDS011;33747;49.524;8.390;2023-12-29T00:56:13;3.15;;;2.92;;
7338;SDS011;33747;49.524;8.390;2023-12-29T00:58:39;3.78;;;2.53;;
7338;SDS011;33747;49.524;8.390;2023-12-29T01:01:07;3.13;;;2.65;;
7338;SDS011;33747;49.524;8.390;2023-12-29T01:03:34;4.05;;;1.77;;
7338;SDS011;33747;49.524;8.390;2023-12-29T01:05:59;5.68;;;2.47;;
7338;SDS011;33747;49.524;8.390;2023-12-29T01:08:25;2.80;;;2.55;;
7338;SDS011;33747;49.524;8.390;2023-12-29T01:10:50;2.92;;;2.40;;
7338;SDS011;33747;49.524;8.390;2023-12-29T01:13:15;4.03;;;2.28;;
7338;SDS011;33747;49.524;8.390;2023-12-29T01:15:41;2.13;;;1.95;;
7338;SDS011;33747;49.524;8.390;2023-12-29T01:18:09;4.88;;;2.33;;
7338;SDS011;33747;49.524;8.390;2023-12-29T01:20:35;2.53;;;2.33;;
7338;SDS011;33747;49.524;8.390;2023-12-29T01:23:00;3.17;;;2.47;;
7338;SDS011;33747;49.524;8.390;2023-12-29T01:25:26;4.05;;;2.35;;
7338;SDS011;33747;49.524;8.390;2023-12-29T01:27:51;2.50;;;2.30;;
7338;SDS011;33747;49.524;8.390;2023-12-29T01:30:16;3.35;;;3.05;;
7338;SDS011;33747;49.524;8.390;2023-12-29T01:32:42;6.07;;;4.15;;
7338;SDS011;33747;49.524;8.390;2023-12-29T01:35:07;5.00;;;3.90;;
7338;SDS011;33747;49.524;8.390;2023-12-29T01:37:33;6.72;;;3.95;;
7338;SDS011;33747;49.524;8.390;2023-12-29T01:39:58;5.80;;;4.57;;
7338;SDS011;33747;49.524;8.390;2023-12-29T01:42:23;4.70;;;4.18;;
7338;SDS011;33747;49.524;8.390;2023-12-29T01:44:49;8.52;;;4.25;;
7338;SDS011;33747;49.524;8.390;2023-12-29T01:47:19;6.13;;;4.03;;
7338;SDS011;33747;49.524;8.390;2023-12-29T01:49:45;5.70;;;4.68;;
7338;SDS011;33747;49.524;8.390;2023-12-29T01:52:11;4.82;;;4.35;;
7338;SDS011;33747;49.524;8.390;2023-12-29T01:54:36;5.60;;;3.72;;
7338;SDS011;33747;49.524;8.390;2023-12-29T01:57:07;4.65;;;3.72;;
7338;SDS011;33747;49.524;8.390;2023-12-29T01:59:33;5.22;;;4.18;;
7338;SDS011;33747;49.524;8.390;2023-12-29T02:02:00;8.32;;;4.50;;
7338;SDS011;33747;49.524;8.390;2023-12-29T02:04:26;6.75;;;5.13;;
7338;SDS011;33747;49.524;8.390;2023-12-29T02:06:53;7.63;;;5.10;;
7338;SDS011;33747;49.524;8.390;2023-12-29T02:09:18;6.03;;;5.15;;
7338;SDS011;33747;49.524;8.390;2023-12-29T02:11:44;8.13;;;5.68;;
7338;SDS011;33747;49.524;8.390;2023-12-29T02:14:10;5.35;;;4.50;;
7338;SDS011;33747;49.524;8.390;2023-12-29T02:16:38;10.73;;;5.82;;
7338;SDS011;33747;49.524;8.390;2023-12-29T02:19:33;5.75;;;4.63;;
7338;SDS011;33747;49.524;8.390;2023-12-29T02:22:11;8.00;;;4.93;;
7338;SDS011;33747;49.524;8.390;2023-12-29T02:24:36;5.03;;;3.50;;
7338;SDS011;33747;49.524;8.390;2023-12-29T02:27:05;2.67;;;2.33;;
7338;SDS011;33747;49.524;8.390;2023-12-29T02:29:36;3.72;;;2.42;;
7338;SDS011;33747;49.524;8.390;2023-12-29T02:32:03;3.90;;;2.35;;
7338;SDS011;33747;49.524;8.390;2023-12-29T02:34:31;3.55;;;2.75;;
7338;SDS011;33747;49.524;8.390;2023-12-29T02:36:57;2.50;;;2.22;;
7338;SDS011;33747;49.524;8.390;2023-12-29T02:39:23;4.38;;;2.65;;
7338;SDS011;33747;49.524;8.390;2023-12-29T02:41:48;5.28;;;2.50;;
7338;SDS011;33747;49.524;8.390;2023-12-29T02:44:14;2.83;;;2.30;;
7338;SDS011;33747;49.524;8.390;2023-12-29T02:46:39;2.03;;;1.90;;
7338;SDS011;33747;49.524;8.390;2023-12-29T02:49:05;2.65;;;2.03;;
7338;SDS011;33747;49.524;8.390;2023-12-29T02:51:30;2.40;;;2.13;;
7338;SDS011;33747;49.524;8.390;2023-12-29T02:53:55;2.00;;;1.80;;
7338;SDS011;33747;49.524;8.390;2023-12-29T02:56:21;2.72;;;2.00;;
7338;SDS011;33747;49.524;8.390;2023-12-29T02:58:47;4.80;;;2.17;;
7338;SDS011;33747;49.524;8.390;2023-12-29T03:01:13;2.60;;;1.85;;
7338;SDS011;33747;49.524;8.390;2023-12-29T03:03:38;2.53;;;2.03;;
7338;SDS011;33747;49.524;8.390;2023-12-29T03:06:05;5.90;;;2.20;;
7338;SDS011;33747;49.524;8.390;2023-12-29T03:08:30;2.50;;;2.00;;
7338;SDS011;33747;49.524;8.390;2023-12-29T03:10:56;3.70;;;1.75;;
7338;SDS011;33747;49.524;8.390;2023-12-29T03:13:22;2.50;;;1.80;;
7338;SDS011;33747;49.524;8.390;2023-12-29T03:15:47;5.05;;;2.20;;
7338;SDS011;33747;49.524;8.390;2023-12-29T03:18:13;3.03;;;1.90;;
7338;SDS011;33747;49.524;8.390;2023-12-29T03:20:38;1.98;;;1.85;;
7338;SDS011;33747;49.524;8.390;2023-12-29T03:23:04;4.40;;;2.45;;
7338;SDS011;33747;49.524;8.390;2023-12-29T03:25:29;1.95;;;1.67;;
7338;SDS011;33747;49.524;8.390;2023-12-29T03:27:54;2.45;;;2.00;;
7338;SDS011;33747;49.524;8.390;2023-12-29T03:30:20;4.20;;;2.60;;
7338;SDS011;33747;49.524;8.390;2023-12-29T03:32:45;2.30;;;2.10;;
7338;SDS011;33747;49.524;8.390;2023-12-29T03:35:11;2.22;;;2.03;;
7338;SDS011;33747;49.524;8.390;2023-12-29T03:37:37;2.63;;;1.77;;
7338;SDS011;33747;49.524;8.390;2023-12-29T03:40:02;2.28;;;2.08;;
7338;SDS011;33747;49.524;8.390;2023-12-29T03:42:28;1.90;;;1.73;;
7338;SDS011;33747;49.524;8.390;2023-12-29T03:44:53;3.65;;;2.20;;
7338;SDS011;33747;49.524;8.390;2023-12-29T03:47:19;3.38;;;2.05;;
7338;SDS011;33747;49.524;8.390;2023-12-29T03:49:44;2.88;;;2.10;;
7338;SDS011;33747;49.524;8.390;2023-12-29T03:52:10;4.13;;;2.10;;
7338;SDS011;33747;49.524;8.390;2023-12-29T03:54:35;1.65;;;1.55;;
7338;SDS011;33747;49.524;8.390;2023-12-29T03:57:00;3.63;;;1.98;;
7338;SDS011;33747;49.524;8.390;2023-12-29T03:59:26;3.75;;;2.30;;
7338;SDS011;33747;49.524;8.390;2023-12-29T04:01:51;3.45;;;2.40;;
7338;SDS011;33747;49.524;8.390;2023-12-29T04:04:17;5.65;;;2.92;;
7338;SDS011;33747;49.524;8.390;2023-12-29T04:06:42;6.47;;;3.85;;
7338;SDS011;33747;49.524;8.390;2023-12-29T04:09:07;4.70;;;3.25;;
7338;SDS011;33747;49.524;8.390;2023-12-29T04:11:33;7.68;;;2.83;;
7338;SDS011;33747;49.524;8.390;2023-12-29T04:13:58;5.93;;;3.30;;
7338;SDS011;33747;49.524;8.390;2023-12-29T04:16:23;6.85;;;3.55;;
7338;SDS011;33747;49.524;8.390;2023-12-29T04:18:49;4.13;;;2.97;;
7338;SDS011;33747;49.524;8.390;2023-12-29T04:21:14;8.05;;;3.83;;
7338;SDS011;33747;49.524;8.390;2023-12-29T04:23:40;4.93;;;2.67;;
7338;SDS011;33747;49.524;8.390;2023-12-29T04:26:06;3.78;;;3.22;;
7338;SDS011;33747;49.524;8.390;2023-12-29T04:28:32;6.13;;;3.45;;
7338;SDS011;33747;49.524;8.390;2023-12-29T04:30:58;5.35;;;4.30;;
7338;SDS011;33747;49.524;8.390;2023-12-29T04:33:23;4.60;;;3.13;;
7338;SDS011;33747;49.524;8.390;2023-12-29T04:35:48;4.25;;;2.90;;
7338;SDS011;33747;49.524;8.390;2023-12-29T04:38:14;4.60;;;3.53;;
7338;SDS011;33747;49.524;8.390;2023-12-29T04:40:39;8.50;;;3.10;;
7338;SDS011;33747;49.524;8.390;2023-12-29T04:43:05;5.65;;;2.35;;
7338;SDS011;33747;49.524;8.390;2023-12-29T04:45:30;2.90;;;2.38;;
7338;SDS011;33747;49.524;8.390;2023-12-29T04:47:56;3.28;;;2.65;;
7338;SDS011;33747;49.524;8.390;2023-12-29T04:50:21;2.85;;;2.42;;
7338;SDS011;33747;49.524;8.390;2023-12-29T04:52:46;2.38;;;2.22;;
7338;SDS011;33747;49.524;8.390;2023-12-29T04:55:12;2.45;;;2.20;;
7338;SDS011;33747;49.524;8.390;2023-12-29T04:57:38;4.07;;;2.40;;
7338;SDS011;33747;49.524;8.390;2023-12-29T05:00:03;4.45;;;2.08;;
7338;SDS011;33747;49.524;8.390;2023-12-29T05:02:29;2.20;;;2.00;;
7338;SDS011;33747;49.524;8.390;2023-12-29T05:04:54;3.50;;;2.22;;
7338;SDS011;33747;49.524;8.390;2023-12-29T05:07:20;2.40;;;2.03;;
7338;SDS011;33747;49.524;8.390;2023-12-29T05:09:45;3.28;;;2.00;;
7338;SDS011;33747;49.524;8.390;2023-12-29T05:12:11;2.65;;;2.00;;
7338;SDS011;33747;49.524;8.390;2023-12-29T05:14:36;2.78;;;1.80;;
7338;SDS011;33747;49.524;8.390;2023-12-29T05:17:01;2.50;;;2.03;;
7338;SDS011;33747;49.524;8.390;2023-12-29T05:19:27;2.25;;;2.08;;
7338;SDS011;33747;49.524;8.390;2023-12-29T05:21:52;5.45;;;2.85;;
7338;SDS011;33747;49.524;8.390;2023-12-29T05:24:18;3.95;;;2.13;;
7338;SDS011;33747;49.524;8.390;2023-12-29T05:26:44;5.22;;;2.42;;
7338;SDS011;33747;49.524;8.390;2023-12-29T05:29:09;3.88;;;2.17;;
7338;SDS011;33747;49.524;8.390;2023-12-29T05:31:35;2.88;;;2.05;;
7338;SDS011;33747;49.524;8.390;2023-12-29T05:34:00;1.85;;;1.70;;
7338;SDS011;33747;49.524;8.390;2023-12-29T05:36:26;3.83;;;2.65;;
7338;SDS011;33747;49.524;8.390;2023-12-29T05:38:51;4.50;;;2.85;;
7338;SDS011;33747;49.524;8.390;2023-12-29T05:41:16;4.45;;;3.83;;
7338;SDS011;33747;49.524;8.390;2023-12-29T05:43:43;4.43;;;3.70;;
7338;SDS011;33747;49.524;8.390;2023-12-29T05:46:12;3.83;;;3.53;;
7338;SDS011;33747;49.524;8.390;2023-12-29T05:48:38;4.70;;;3.25;;
7338;SDS011;33747;49.524;8.390;2023-12-29T05:51:10;3.92;;;3.63;;
7338;SDS011;33747;49.524;8.390;2023-12-29T05:53:38;4.20;;;3.55;;
7338;SDS011;33747;49.524;8.390;2023-12-29T05:56:04;7.00;;;3.72;;
7338;SDS011;33747;49.524;8.390;2023-12-29T05:58:29;5.10;;;3.10;;
7338;SDS011;33747;49.524;8.390;2023-12-29T06:00:55;4.13;;;3.00;;
7338;SDS011;33747;49.524;8.390;2023-12-29T06:03:21;4.13;;;3.70;;
7338;SDS011;33747;49.524;8.390;2023-12-29T06:05:46;5.35;;;3.55;;
7338;SDS011;33747;49.524;8.390;2023-12-29T06:08:12;3.45;;;3.15;;
7338;SDS011;33747;49.524;8.390;2023-12-29T06:10:38;5.15;;;2.97;;
7338;SDS011;33747;49.524;8.390;2023-12-29T06:13:03;5.82;;;3.28;;
7338;SDS011;33747;49.524;8.390;2023-12-29T06:15:28;3.47;;;3.17;;
7338;SDS011;33747;49.524;8.390;2023-12-29T06:17:54;3.67;;;3.15;;
7338;SDS011;33747;49.524;8.390;2023-12-29T06:20:19;3.90;;;2.95;;
7338;SDS011;33747;49.524;8.390;2023-12-29T06:22:45;6.68;;;3.30;;
7338;SDS011;33747;49.524;8.390;2023-12-29T06:25:10;3.72;;;2.90;;
7338;SDS011;33747;49.524;8.390;2023-12-29T06:27:36;4.65;;;2.95;;
7338;SDS011;33747;49.524;8.390;2023-12-29T06:30:06;3.58;;;3.20;;
7338;SDS011;33747;49.524;8.390;2023-12-29T06:32:32;4.32;;;3.03;;
7338;SDS011;33747;49.524;8.390;2023-12-29T06:34:58;3.28;;;2.97;;
7338;SDS011;33747;49.524;8.390;2023-12-29T06:37:23;3.15;;;2.83;;
7338;SDS011;33747;49.524;8.390;2023-12-29T06:39:48;3.60;;;2.70;;
7338;SDS011;33747;49.524;8.390;2023-12-29T06:42:14;2.90;;;2.70;;
7338;SDS011;33747;49.524;8.390;2023-12-29T06:44:39;4.93;;;2.80;;
7338;SDS011;33747;49.524;8.390;2023-12-29T06:47:05;1.83;;;1.73;;
7338;SDS011;33747;49.524;8.390;2023-12-29T06:49:31;1.83;;;1.73;;
7338;SDS011;33747;49.524;8.390;2023-12-29T06:52:00;3.40;;;2.08;;
7338;SDS011;33747;49.524;8.390;2023-12-29T06:54:25;1.90;;;1.58;;
7338;SDS011;33747;49.524;8.390;2023-12-29T06:56:50;1.90;;;1.60;;
7338;SDS011;33747;49.524;8.390;2023-12-29T06:59:16;1.40;;;1.30;;
7338;SDS011;33747;49.524;8.390;2023-12-29T07:01:43;1.70;;;1.60;;
7338;SDS011;33747;49.524;8.390;2023-12-29T07:04:09;3.55;;;1.67;;
7338;SDS011;33747;49.524;8.390;2023-12-29T07:06:37;4.65;;;2.10;;
7338;SDS011;33747;49.524;8.390;2023-12-29T07:09:03;2.25;;;1.55;;
7338;SDS011;33747;49.524;8.390;2023-12-29T07:11:28;3.10;;;1.55;;
7338;SDS011;33747;49.524;8.390;2023-12-29T07:13:54;2.42;;;1.55;;
7338;SDS011;33747;49.524;8.390;2023-12-29T07:16:19;3.50;;;1.38;;
7338;SDS011;33747;49.524;8.390;2023-12-29T07:18:45;2.45;;;1.23;;
7338;SDS011;33747;49.524;8.390;2023-12-29T07:21:11;1.55;;;1.38;;
7338;SDS011;33747;49.524;8.390;2023-12-29T07:23:37;5.68;;;1.38;;
7338;SDS011;33747;49.524;8.390;2023-12-29T07:26:02;2.97;;;1.42;;
7338;SDS011;33747;49.524;8.390;2023-12-29T07:28:28;1.85;;;1.20;;
7338;SDS011;33747;49.524;8.390;2023-12-29T07:30:53;1.33;;;1.15;;
7338;SDS011;33747;49.524;8.390;2023-12-29T07:33:18;1.38;;;1.25;;
7338;SDS011;33747;49.524;8.390;2023-12-29T07:35:44;2.45;;;1.35;;
7338;SDS011;33747;49.524;8.390;2023-12-29T07:38:10;2.17;;;1.58;;
7338;SDS011;33747;49.524;8.390;2023-12-29T07:40:36;2.58;;;1.67;;
7338;SDS011;33747;49.524;8.390;2023-12-29T07:43:02;2.53;;;1.40;;
7338;SDS011;33747;49.524;8.390;2023-12-29T07:45:27;2.38;;;1.58;;
7338;SDS011;33747;49.524;8.390;2023-12-29T07:47:52;2.65;;;1.88;;
7338;SDS011;33747;49.524;8.390;2023-12-29T07:50:18;2.28;;;1.67;;
7338;SDS011;33747;49.524;8.390;2023-12-29T07:52:44;3.08;;;1.58;;
7338;SDS011;33747;49.524;8.390;2023-12-29T07:55:09;2.22;;;1.65;;
7338;SDS011;33747;49.524;8.390;2023-12-29T07:57:34;2.05;;;1.17;;
7338;SDS011;33747;49.524;8.390;2023-12-29T08:00:03;4.22;;;1.73;;
7338;SDS011;33747;49.524;8.390;2023-12-29T08:02:31;2.08;;;1.40;;
7338;SDS011;33747;49.524;8.390;2023-12-29T08:04:56;1.55;;;1.42;;
7338;SDS011;33747;49.524;8.390;2023-12-29T08:07:22;1.65;;;1.50;;
7338;SDS011;33747;49.524;8.390;2023-12-29T08:09:47;3.15;;;1.50;;
7338;SDS011;33747;49.524;8.390;2023-12-29T08:12:13;2.03;;;1.65;;
7338;SDS011;33747;49.524;8.390;2023-12-29T08:14:38;4.43;;;2.03;;
7338;SDS011;33747;49.524;8.390;2023-12-29T08:17:05;2.10;;;1.50;;
7338;SDS011;33747;49.524;8.390;2023-12-29T08:19:33;2.38;;;1.45;;
7338;SDS011;33747;49.524;8.390;2023-12-29T08:21:58;4.40;;;1.77;;
7338;SDS011;33747;49.524;8.390;2023-12-29T08:24:24;2.20;;;1.40;;
7338;SDS011;33747;49.524;8.390;2023-12-29T08:26:50;4.82;;;1.40;;
7338;SDS011;33747;49.524;8.390;2023-12-29T08:29:15;4.95;;;3.05;;
7338;SDS011;33747;49.524;8.390;2023-12-29T08:31:41;2.42;;;1.50;;
7338;SDS011;33747;49.524;8.390;2023-12-29T08:34:08;2.92;;;1.63;;
7338;SDS011;33747;49.524;8.390;2023-12-29T08:36:33;4.82;;;1.50;;
7338;SDS011;33747;49.524;8.390;2023-12-29T08:38:58;1.98;;;1.45;;
7338;SDS011;33747;49.524;8.390;2023-12-29T08:41:24;1.75;;;1.50;;
7338;SDS011;33747;49.524;8.390;2023-12-29T08:43:49;1.75;;;1.58;;
7338;SDS011;33747;49.524;8.390;2023-12-29T08:46:14;5.00;;;2.00;;
7338;SDS011;33747;49.524;8.390;2023-12-29T08:48:40;2.60;;;2.25;;
7338;SDS011;33747;49.524;8.390;2023-12-29T08:51:05;2.50;;;1.77;;
7338;SDS011;33747;49.524;8.390;2023-12-29T08:53:31;1.80;;;1.70;;
7338;SDS011;33747;49.524;8.390;2023-12-29T08:56:00;3.35;;;2.00;;
7338;SDS011;33747;49.524;8.390;2023-12-29T08:58:25;3.08;;;1.88;;
7338;SDS011;33747;49.524;8.390;2023-12-29T09:00:51;5.25;;;1.83;;
7338;SDS011;33747;49.524;8.390;2023-12-29T09:03:17;4.70;;;1.55;;
7338;SDS011;33747;49.524;8.390;2023-12-29T09:05:44;4.60;;;1.50;;
7338;SDS011;33747;49.524;8.390;2023-12-29T09:08:09;3.33;;;1.25;;
7338;SDS011;33747;49.524;8.390;2023-12-29T09:10:34;1.75;;;1.40;;
7338;SDS011;33747;49.524;8.390;2023-12-29T09:13:00;4.32;;;1.70;;
7338;SDS011;33747;49.524;8.390;2023-12-29T09:15:25;1.45;;;1.27;;
7338;SDS011;33747;49.524;8.390;2023-12-29T09:17:50;1.15;;;1.05;;
7338;SDS011;33747;49.524;8.390;2023-12-29T09:20:16;2.72;;;1.40;;
7338;SDS011;33747;49.524;8.390;2023-12-29T09:22:42;2.55;;;1.38;;
7338;SDS011;33747;49.524;8.390;2023-12-29T09:25:07;3.97;;;1.50;;
7338;SDS011;33747;49.524;8.390;2023-12-29T09:27:33;2.08;;;1.77;;
7338;SDS011;33747;49.524;8.390;2023-12-29T09:29:58;5.38;;;1.42;;
7338;SDS011;33747;49.524;8.390;2023-12-29T09:32:23;4.15;;;1.63;;
7338;SDS011;33747;49.524;8.390;2023-12-29T09:34:49;2.55;;;1.48;;
7338;SDS011;33747;49.524;8.390;2023-12-29T09:37:14;1.48;;;1.30;;
7338;SDS011;33747;49.524;8.390;2023-12-29T09:39:40;1.92;;;1.10;;
7338;SDS011;33747;49.524;8.390;2023-12-29T09:42:06;1.90;;;1.17;;
7338;SDS011;33747;49.524;8.390;2023-12-29T09:44:32;1.75;;;1.48;;
7338;SDS011;33747;49.524;8.390;2023-12-29T09:47:01;2.45;;;1.40;;
7338;SDS011;33747;49.524;8.390;2023-12-29T09:49:37;1.85;;;1.23;;
7338;SDS011;33747;49.524;8.390;2023-12-29T09:52:05;0.98;;;0.93;;
7338;SDS011;33747;49.524;8.390;2023-12-29T09:54:32;1.25;;;1.15;;
7338;SDS011;33747;49.524;8.390;2023-12-29T09:56:58;1.52;;;1.30;;
7338;SDS011;33747;49.524;8.390;2023-12-29T09:59:24;2.08;;;1.30;;
7338;SDS011;33747;49.524;8.390;2023-12-29T10:01:50;2.22;;;1.30;;
7338;SDS011;33747;49.524;8.390;2023-12-29T10:04:16;2.05;;;1.30;;
7338;SDS011;33747;49.524;8.390;2023-12-29T10:06:43;1.60;;;1.20;;
7338;SDS011;33747;49.524;8.390;2023-12-29T10:09:11;1.00;;;0.90;;
7338;SDS011;33747;49.524;8.390;2023-12-29T10:11:37;1.88;;;1.00;;
7338;SDS011;33747;49.524;8.390;2023-12-29T10:14:06;1.83;;;1.30;;
7338;SDS011;33747;49.524;8.390;2023-12-29T10:16:40;1.98;;;1.10;;
7338;SDS011;33747;49.524;8.390;2023-12-29T10:21:46;1.90;;;1.13;;
7338;SDS011;33747;49.524;8.390;2023-12-29T10:26:45;6.68;;;1.60;;
7338;SDS011;33747;49.524;8.390;2023-12-29T10:29:12;2.33;;;1.48;;
7338;SDS011;33747;49.524;8.390;2023-12-29T10:31:37;1.50;;;1.20;;
7338;SDS011;33747;49.524;8.390;2023-12-29T10:36:53;2.75;;;1.33;;
7338;SDS011;33747;49.524;8.390;2023-12-29T10:39:19;2.00;;;1.20;;
7338;SDS011;33747;49.524;8.390;2023-12-29T10:41:44;2.92;;;0.90;;
7338;SDS011;33747;49.524;8.390;2023-12-29T10:44:10;1.63;;;1.35;;
7338;SDS011;33747;49.524;8.390;2023-12-29T10:46:35;3.35;;;1.13;;
7338;SDS011;33747;49.524;8.390;2023-12-29T10:49:07;1.23;;;0.93;;
7338;SDS011;33747;49.524;8.390;2023-12-29T10:53:59;3.33;;;1.38;;
7338;SDS011;33747;49.524;8.390;2023-12-29T10:56:25;4.85;;;1.48;;
7338;SDS011;33747;49.524;8.390;2023-12-29T10:59:04;2.55;;;1.35;;
7338;SDS011;33747;49.524;8.390;2023-12-29T11:01:30;4.70;;;1.35;;
7338;SDS011;33747;49.524;8.390;2023-12-29T11:04:03;2.28;;;1.13;;
7338;SDS011;33747;49.524;8.390;2023-12-29T11:06:39;4.72;;;1.20;;
7338;SDS011;33747;49.524;8.390;2023-12-29T11:09:11;3.15;;;0.90;;
7338;SDS011;33747;49.524;8.390;2023-12-29T11:11:37;3.55;;;1.10;;
7338;SDS011;33747;49.524;8.390;2023-12-29T11:14:02;0.82;;;0.82;;
7338;SDS011;33747;49.524;8.390;2023-12-29T11:16:29;1.90;;;1.05;;
7338;SDS011;33747;49.524;8.390;2023-12-29T11:18:54;2.97;;;0.90;;
7338;SDS011;33747;49.524;8.390;2023-12-29T11:21:21;0.90;;;0.90;;
7338;SDS011;33747;49.524;8.390;2023-12-29T11:23:49;2.40;;;0.95;;
7338;SDS011;33747;49.524;8.390;2023-12-29T11:26:14;4.47;;;1.48;;
7338;SDS011;33747;49.524;8.390;2023-12-29T11:28:40;2.63;;;1.00;;
7338;SDS011;33747;49.524;8.390;2023-12-29T11:31:05;3.80;;;1.20;;
7338;SDS011;33747;49.524;8.390;2023-12-29T11:33:41;0.90;;;0.90;;
7338;SDS011;33747;49.524;8.390;2023-12-29T11:36:14;1.42;;;1.10;;
7338;SDS011;33747;49.524;8.390;2023-12-29T11:41:25;3.20;;;1.30;;
7338;SDS011;33747;49.524;8.390;2023-12-29T11:43:57;1.45;;;1.30;;
7338;SDS011;33747;49.524;8.390;2023-12-29T11:49:18;1.52;;;1.13;;
7338;SDS011;33747;49.524;8.390;2023-12-29T11:51:44;1.38;;;1.27;;
7338;SDS011;33747;49.524;8.390;2023-12-29T11:54:23;1.45;;;1.20;;
7338;SDS011;33747;49.524;8.390;2023-12-29T11:56:52;3.22;;;1.63;;
7338;SDS011;33747;49.524;8.390;2023-12-29T11:59:19;3.08;;;1.52;;
7338;SDS011;33747;49.524;8.390;2023-12-29T12:01:49;1.88;;;1.52;;
7338;SDS011;33747;49.524;8.390;2023-12-29T12:07:06;2.78;;;1.25;;
7338;SDS011;33747;49.524;8.390;2023-12-29T12:09:33;2.88;;;1.50;;
7338;SDS011;33747;49.524;8.390;2023-12-29T12:12:00;3.63;;;1.40;;
7338;SDS011;33747;49.524;8.390;2023-12-29T12:17:13;1.35;;;1.10;;
7338;SDS011;33747;49.524;8.390;2023-12-29T12:19:53;1.92;;;1.27;;
7338;SDS011;33747;49.524;8.390;2023-12-29T12:22:22;3.15;;;2.20;;
7338;SDS011;33747;49.524;8.390;2023-12-29T12:24:55;1.17;;;1.00;;
7338;SDS011;33747;49.524;8.390;2023-12-29T12:27:21;1.10;;;1.10;;
7338;SDS011;33747;49.524;8.390;2023-12-29T12:29:50;2.70;;;1.10;;
7338;SDS011;33747;49.524;8.390;2023-12-29T12:32:22;1.25;;;0.90;;
7338;SDS011;33747;49.524;8.390;2023-12-29T12:34:47;1.40;;;1.30;;
7338;SDS011;33747;49.524;8.390;2023-12-29T12:37:18;1.63;;;0.98;;
7338;SDS011;33747;49.524;8.390;2023-12-29T12:39:43;1.02;;;0.90;;
7338;SDS011;33747;49.524;8.390;2023-12-29T12:42:09;1.42;;;0.90;;
7338;SDS011;33747;49.524;8.390;2023-12-29T12:44:34;4.03;;;1.20;;
7338;SDS011;33747;49.524;8.390;2023-12-29T12:47:06;0.73;;;0.73;;
7338;SDS011;33747;49.524;8.390;2023-12-29T12:49:33;1.88;;;1.20;;
7338;SDS011;33747;49.524;8.390;2023-12-29T12:51:58;1.27;;;0.70;;
7338;SDS011;33747;49.524;8.390;2023-12-29T12:54:23;0.80;;;0.80;;
7338;SDS011;33747;49.524;8.390;2023-12-29T12:56:49;2.67;;;1.45;;
7338;SDS011;33747;49.524;8.390;2023-12-29T12:59:15;2.70;;;1.40;;
7338;SDS011;33747;49.524;8.390;2023-12-29T13:01:41;3.25;;;0.93;;
7338;SDS011;33747;49.524;8.390;2023-12-29T13:04:07;1.13;;;1.02;;
7338;SDS011;33747;49.524;8.390;2023-12-29T13:06:33;1.10;;;1.00;;
7338;SDS011;33747;49.524;8.390;2023-12-29T13:09:02;3.40;;;1.00;;
7338;SDS011;33747;49.524;8.390;2023-12-29T13:11:30;1.88;;;1.30;;
7338;SDS011;33747;49.524;8.390;2023-12-29T13:13:55;1.23;;;1.13;;
7338;SDS011;33747;49.524;8.390;2023-12-29T13:16:35;2.95;;;1.10;;
7338;SDS011;33747;49.524;8.390;2023-12-29T13:21:47;3.03;;;1.90;;
7338;SDS011;33747;49.524;8.390;2023-12-29T13:24:18;1.55;;;1.45;;
7338;SDS011;33747;49.524;8.390;2023-12-29T13:26:45;1.70;;;1.30;;
7338;SDS011;33747;49.524;8.390;2023-12-29T13:29:13;2.75;;;2.05;;
7338;SDS011;33747;49.524;8.390;2023-12-29T13:31:39;1.35;;;1.20;;
7338;SDS011;33747;49.524;8.390;2023-12-29T13:34:06;1.10;;;1.10;;
7338;SDS011;33747;49.524;8.390;2023-12-29T13:36:38;2.30;;;1.55;;
7338;SDS011;33747;49.524;8.390;2023-12-29T13:39:12;1.40;;;1.30;;
7338;SDS011;33747;49.524;8.390;2023-12-29T13:41:55;2.60;;;1.83;;
7338;SDS011;33747;49.524;8.390;2023-12-29T13:44:21;2.67;;;1.52;;
7338;SDS011;33747;49.524;8.390;2023-12-29T13:46:47;4.63;;;1.60;;
7338;SDS011;33747;49.524;8.390;2023-12-29T13:49:13;1.98;;;1.60;;
7338;SDS011;33747;49.524;8.390;2023-12-29T13:51:40;3.38;;;1.40;;
7338;SDS011;33747;49.524;8.390;2023-12-29T13:54:06;2.05;;;1.52;;
7338;SDS011;33747;49.524;8.390;2023-12-29T13:56:31;1.58;;;1.45;;
7338;SDS011;33747;49.524;8.390;2023-12-29T13:58:58;2.53;;;1.50;;
7338;SDS011;33747;49.524;8.390;2023-12-29T14:01:34;1.27;;;1.20;;
7338;SDS011;33747;49.524;8.390;2023-12-29T14:04:00;1.42;;;1.30;;
7338;SDS011;33747;49.524;8.390;2023-12-29T14:06:29;1.25;;;1.13;;
7338;SDS011;33747;49.524;8.390;2023-12-29T14:08:57;3.47;;;1.55;;
7338;SDS011;33747;49.524;8.390;2023-12-29T14:11:22;5.32;;;1.30;;
7338;SDS011;33747;49.524;8.390;2023-12-29T14:13:48;1.20;;;1.10;;
7338;SDS011;33747;49.524;8.390;2023-12-29T14:16:13;4.70;;;1.70;;
7338;SDS011;33747;49.524;8.390;2023-12-29T14:21:27;2.78;;;1.30;;
7338;SDS011;33747;49.524;8.390;2023-12-29T14:24:12;1.60;;;1.50;;
7338;SDS011;33747;49.524;8.390;2023-12-29T14:26:39;1.92;;;1.10;;
7338;SDS011;33747;49.524;8.390;2023-12-29T14:29:18;1.77;;;1.65;;
7338;SDS011;33747;49.524;8.390;2023-12-29T14:31:44;1.98;;;1.38;;
7338;SDS011;33747;49.524;8.390;2023-12-29T14:34:11;1.02;;;1.00;;
7338;SDS011;33747;49.524;8.390;2023-12-29T14:36:37;1.77;;;1.10;;
7338;SDS011;33747;49.524;8.390;2023-12-29T14:39:04;1.83;;;1.42;;
7338;SDS011;33747;49.524;8.390;2023-12-29T14:41:31;16.23;;;5.03;;
7338;SDS011;33747;49.524;8.390;2023-12-29T14:43:56;1.95;;;1.35;;
7338;SDS011;33747;49.524;8.390;2023-12-29T14:46:22;3.10;;;1.05;;
7338;SDS011;33747;49.524;8.390;2023-12-29T14:48:47;1.70;;;1.30;;
7338;SDS011;33747;49.524;8.390;2023-12-29T14:51:13;2.30;;;1.15;;
7338;SDS011;33747;49.524;8.390;2023-12-29T14:53:39;3.70;;;0.90;;
7338;SDS011;33747;49.524;8.390;2023-12-29T14:56:04;1.73;;;1.02;;
7338;SDS011;33747;49.524;8.390;2023-12-29T14:58:30;1.20;;;0.80;;
7338;SDS011;33747;49.524;8.390;2023-12-29T15:00:58;0.80;;;0.80;;
7338;SDS011;33747;49.524;8.390;2023-12-29T15:03:24;1.55;;;1.45;;
7338;SDS011;33747;49.524;8.390;2023-12-29T15:05:49;1.25;;;1.23;;
7338;SDS011;33747;49.524;8.390;2023-12-29T15:08:15;3.28;;;1.17;;
7338;SDS011;33747;49.524;8.390;2023-12-29T15:10:42;1.90;;;1.48;;
7338;SDS011;33747;49.524;8.390;2023-12-29T15:13:09;1.55;;;1.30;;
7338;SDS011;33747;49.524;8.390;2023-12-29T15:15:35;2.53;;;1.35;;
7338;SDS011;33747;49.524;8.390;2023-12-29T15:18:00;2.60;;;1.20;;
7338;SDS011;33747;49.524;8.390;2023-12-29T15:20:25;2.15;;;1.42;;
7338;SDS011;33747;49.524;8.390;2023-12-29T15:22:51;2.95;;;1.00;;